Terminal Aerodrome Forecast
Issued by NWS

Home | Current Version | Previous Version | Text Only | Print | Product List | Glossary On
Versions: 1 2 3 4 5 6 7 8 9 10 11 12 13 14 15 16 17 18 19
535
FTUS46 KHNX 190520
TAFMER
TAF
KMER 190520Z 1906/2006 15021G30KT P6SM -RA BKN030 OVC045
      TEMPO 1906/1909 2SM +RA OVC010
     FM191900 14009KT 4SM -SHRA BKN025 OVC045 PROB30 1920/1924 -TSRA
      BKN040CB
     FM200000 14009KT 6SM HZ BKN050 PROB30 2000/2001 6SM -SHRA
      BKN050
     FM200200 14007KT 4SM HZ BR OVC050=

USA.gov is the U.S. government's official web portal to all federal, state and local government web resources and services.